Terminal Aerodrome Forecast
Issued by NWS Cleveland, OH

Home | Current Version | Previous Version | Text Only | Print | Product List | Glossary Off
Versions: 1 2 3 4 5 6 7 8 9 10 11 12 13 14 15 16 17 18 19 20 21 22 23 24 25 26 27 28 29 30 31 32 33

000
FTUS41 KCLE 171200 AAA
TAFCLE
TAF AMD
KCLE 171258Z 1713/1818 20012G18KT P6SM SCT018
      TEMPO 1713/1716 BKN018
     FM171600 21015G25KT P6SM BKN030
     FM171800 22015G25KT P6SM BKN050
     FM180000 24012KT P6SM BKN050
     FM180500 27015KT 5SM -SHRA BR SCT015 OVC020
     FM181000 29015G25KT 3SM -SHRA BR SCT009 OVC015=

USA.gov is the U.S. government's official web portal to all federal, state and local government web resources and services.